Time,TemperatureF,DewpointF,PressureIn,WindDirection,WindDirectionDegrees,WindSpeedMPH,WindSpeedGustMPH,Humidity,HourlyPrecipIn,Conditions,Clouds,dailyrainin,SoftwareType,DateUTC
2013-03-13 00:01:00,28.9,24.1,29.88,WNW,297,12.0,14.0,82,0.00,-SN,OVC,0.00,WeatherDisplay:10.37,2013-03-13 04:01:00,
2013-03-13 00:06:00,28.9,24.1,29.88,WNW,295,6.0,12.0,82,0.00,-SN,OVC,0.00,WeatherDisplay:10.37,2013-03-13 04:06:00,
2013-03-13 00:11:00,28.7,24.1,29.88,WNW,289,7.0,10.0,83,0.00,-SN,OVC,0.00,WeatherDisplay:10.37,2013-03-13 04:11:00,
2013-03-13 00:16:00,28.5,24.2,29.88,WNW,294,8.0,10.0,84,0.00,-SN,OVC,0.00,WeatherDisplay:10.37,2013-03-13 04:16:00,
2013-03-13 00:20:00,28.3,24.1,29.88,WNW,300,5.0,8.0,84,0.00,-SN,OVC,0.00,WeatherDisplay:10.37,2013-03-13 04:20:00,
2013-03-13 00:25:00,28.2,24.0,29.88,WNW,300,5.0,7.0,84,0.00,-SN,OVC,0.00,WeatherDisplay:10.37,2013-03-13 04:25:00,
2013-03-13 00:30:00,28.0,23.8,29.88,WNW,301,6.0,7.0,84,0.00,-SN,OVC,0.00,WeatherDisplay:10.37,2013-03-13 04:30:00,
2013-03-13 00:36:00,27.9,23.7,29.88,WNW,293,5.0,6.0,84,0.00,-SN,OVC,0.00,WeatherDisplay:10.37,2013-03-13 04:36:00,
2013-03-13 00:40:00,27.8,23.6,29.88,WNW,292,1.0,3.0,84,0.00,-SN,OVC,0.00,WeatherDisplay:10.37,2013-03-13 04:40:00,
2013-03-13 00:46:00,27.7,23.5,29.88,WNW,296,1.0,3.0,84,0.00,-SN,OVC,0.00,WeatherDisplay:10.37,2013-03-13 04:46:00,
2013-03-13 00:51:00,27.6,23.4,29.88,WNW,295,1.0,4.0,84,0.00,-SN,OVC,0.00,WeatherDisplay:10.37,2013-03-13 04:51:00,
2013-03-13 00:55:00,27.5,23.3,29.88,WNW,295,0.0,2.0,84,0.00,-SN,OVC,0.00,WeatherDisplay:10.37,2013-03-13 04:55:00,
2013-03-13 01:01:00,27.5,23.6,29.88,WNW,295,0.0,2.0,85,0.00,-SN,OVC,0.00,WeatherDisplay:10.37,2013-03-13 05:01:00,
2013-03-13 01:06:00,27.5,23.6,29.88,WNW,295,1.0,2.0,85,0.00,-SN,OVC,0.00,WeatherDisplay:10.37,2013-03-13 05:06:00,
2013-03-13 01:10:00,27.5,23.6,29.88,WNW,295,1.0,3.0,85,0.00,-SN,OVC,0.00,WeatherDisplay:10.37,2013-03-13 05:10:00,
2013-03-13 01:16:00,27.6,23.7,29.88,West,280,1.0,5.0,85,0.00,-SN,OVC,0.00,WeatherDisplay:10.37,2013-03-13 05:16:00,
2013-03-13 01:20:00,27.6,23.7,29.88,West,276,2.0,5.0,85,0.00,-SN,OVC,0.00,WeatherDisplay:10.37,2013-03-13 05:20:00,
2013-03-13 01:25:00,27.7,23.8,29.88,West,270,1.0,5.0,85,0.00,-SN,OVC,0.00,WeatherDisplay:10.37,2013-03-13 05:25:00,
2013-03-13 01:30:00,27.7,23.8,29.88,West,280,2.0,5.0,85,0.00,-SN,OVC,0.00,WeatherDisplay:10.37,2013-03-13 05:30:00,
2013-03-13 01:35:00,27.8,23.9,29.88,WNW,284,3.0,6.0,85,0.00,-SN,OVC,0.00,WeatherDisplay:10.37,2013-03-13 05:35:00,
2013-03-13 01:40:00,27.7,24.1,29.88,West,279,1.0,4.0,86,0.00,-SN,OVC,0.00,WeatherDisplay:10.37,2013-03-13 05:40:00,
2013-03-13 01:46:00,27.6,24.2,29.88,West,276,2.0,5.0,87,0.00,-SN,OVC,0.00,WeatherDisplay:10.37,2013-03-13 05:46:00,
2013-03-13 01:50:00,27.4,24.0,29.88,West,272,2.0,5.0,87,0.00,-SN,OVC,0.00,WeatherDisplay:10.37,2013-03-13 05:50:00,
2013-03-13 01:55:00,27.3,24.2,29.88,West,265,2.0,4.0,88,0.00,-SN,OVC,0.00,WeatherDisplay:10.37,2013-03-13 05:55:00,
2013-03-13 02:01:00,27.2,24.4,29.88,West,262,1.0,3.0,89,0.00,OVC,OVC,0.00,WeatherDisplay:10.37,2013-03-13 06:01:00,
2013-03-13 02:05:00,27.1,24.3,29.88,West,262,2.0,5.0,89,0.00,OVC,OVC,0.00,WeatherDisplay:10.37,2013-03-13 06:05:00,
2013-03-13 02:10:00,27.1,24.3,29.88,WSW,254,1.0,5.0,89,0.00,OVC,OVC,0.00,WeatherDisplay:10.37,2013-03-13 06:10:00,
2013-03-13 02:15:00,27.1,24.6,29.88,WSW,247,2.0,3.0,90,0.00,OVC,OVC,0.00,WeatherDisplay:10.37,2013-03-13 06:15:00,
2013-03-13 02:21:00,27.1,24.6,29.88,WSW,244,2.0,3.0,90,0.00,OVC,OVC,0.00,WeatherDisplay:10.37,2013-03-13 06:21:00,
2013-03-13 02:25:00,27.2,24.6,29.88,West,270,0.0,4.0,90,0.00,OVC,OVC,0.00,WeatherDisplay:10.37,2013-03-13 06:25:00,
2013-03-13 02:31:00,27.2,24.7,29.89,NW,322,9.0,17.0,90,0.00,OVC,OVC,0.00,WeatherDisplay:10.37,2013-03-13 06:31:00,
2013-03-13 02:35:00,26.4,23.0,29.90,NNW,345,12.0,18.0,87,0.00,OVC,OVC,0.00,WeatherDisplay:10.37,2013-03-13 06:35:00,
2013-03-13 02:40:00,25.9,21.5,29.90,NNW,348,9.0,18.0,83,0.00,OVC,OVC,0.00,WeatherDisplay:10.37,2013-03-13 06:40:00,
2013-03-13 02:46:00,25.8,20.8,29.90,NNW,346,7.0,14.0,81,0.00,OVC,OVC,0.00,WeatherDisplay:10.37,2013-03-13 06:46:00,
2013-03-13 02:50:00,25.7,20.4,29.90,NNW,339,9.0,14.0,80,0.00,OVC,OVC,0.00,WeatherDisplay:10.37,2013-03-13 06:50:00,
2013-03-13 02:55:00,25.6,20.3,29.90,NNW,329,9.0,14.0,80,0.00,OVC,OVC,0.00,WeatherDisplay:10.37,2013-03-13 06:55:00,
2013-03-13 03:00:00,25.6,20.3,29.90,NNW,332,8.0,12.0,80,0.00,-SN,OVC,0.00,WeatherDisplay:10.37,2013-03-13 07:00:00,
2013-03-13 03:05:00,25.5,20.2,29.91,NNW,333,6.0,9.0,80,0.00,-SN,OVC,0.00,WeatherDisplay:10.37,2013-03-13 07:05:00,
2013-03-13 03:11:00,25.4,20.1,29.91,NW,322,7.0,13.0,80,0.00,-SN,OVC,0.00,WeatherDisplay:10.37,2013-03-13 07:11:00,
2013-03-13 03:21:00,25.3,20.0,29.91,NNW,332,9.0,12.0,80,0.00,-SN,OVC,0.00,WeatherDisplay:10.37,2013-03-13 07:21:00,
2013-03-13 03:25:00,25.2,20.2,29.91,NW,320,9.0,14.0,81,0.00,-SN,OVC,0.00,WeatherDisplay:10.37,2013-03-13 07:25:00,
2013-03-13 03:30:00,25.1,20.4,29.91,NW,316,6.0,8.0,82,0.00,-SN,OVC,0.00,WeatherDisplay:10.37,2013-03-13 07:30:00,
2013-03-13 03:35:00,25.0,20.3,29.91,NW,314,6.0,8.0,82,0.00,-SN,OVC,0.00,WeatherDisplay:10.37,2013-03-13 07:35:00,
2013-03-13 03:40:00,24.9,20.5,29.91,NW,308,6.0,7.0,83,0.00,-SN,OVC,0.00,WeatherDisplay:10.37,2013-03-13 07:40:00,
2013-03-13 03:45:00,24.9,20.2,29.91,NW,306,7.0,12.0,82,0.00,-SN,OVC,0.00,WeatherDisplay:10.37,2013-03-13 07:45:00,
2013-03-13 03:50:00,24.9,20.2,29.91,NW,308,6.0,9.0,82,0.00,-SN,OVC,0.00,WeatherDisplay:10.37,2013-03-13 07:50:00,
2013-03-13 03:56:00,24.9,19.9,29.91,NW,313,7.0,12.0,81,0.00,-SN,OVC,0.00,WeatherDisplay:10.37,2013-03-13 07:56:00,
2013-03-13 04:01:00,24.9,19.6,29.91,NW,313,6.0,9.0,80,0.00,OVC,OVC,0.00,WeatherDisplay:10.37,2013-03-13 08:01:00,
2013-03-13 04:11:00,24.7,18.8,29.92,NW,307,8.0,15.0,78,0.00,OVC,OVC,0.00,WeatherDisplay:10.37,2013-03-13 08:11:00,
2013-03-13 04:15:00,24.7,18.2,29.92,NW,305,9.0,12.0,76,0.00,OVC,OVC,0.00,WeatherDisplay:10.37,2013-03-13 08:15:00,
2013-03-13 04:20:00,24.7,17.5,29.92,NW,311,8.0,13.0,74,0.00,OVC,OVC,0.00,WeatherDisplay:10.37,2013-03-13 08:20:00,
2013-03-13 04:25:00,24.6,17.5,29.92,NW,313,8.0,12.0,74,0.00,OVC,OVC,0.00,WeatherDisplay:10.37,2013-03-13 08:25:00,
2013-03-13 04:31:00,24.4,17.0,29.92,NW,314,7.0,12.0,73,0.00,OVC,OVC,0.00,WeatherDisplay:10.37,2013-03-13 08:31:00,
2013-03-13 04:35:00,24.2,16.8,29.92,NW,308,5.0,9.0,73,0.00,OVC,OVC,0.00,WeatherDisplay:10.37,2013-03-13 08:35:00,
2013-03-13 04:40:00,24.0,16.6,29.92,WNW,302,6.0,8.0,73,0.00,OVC,OVC,0.00,WeatherDisplay:10.37,2013-03-13 08:40:00,
2013-03-13 04:45:00,23.7,16.3,29.92,WNW,303,5.0,9.0,73,0.00,OVC,OVC,0.00,WeatherDisplay:10.37,2013-03-13 08:45:00,
2013-03-13 04:51:00,23.7,16.4,29.92,WNW,303,8.0,12.0,73,0.00,OVC,OVC,0.00,WeatherDisplay:10.37,2013-03-13 08:51:00,
2013-03-13 04:56:00,23.7,16.3,29.92,WNW,301,7.0,9.0,73,0.00,OVC,OVC,0.00,WeatherDisplay:10.37,2013-03-13 08:56:00,
2013-03-13 05:01:00,23.6,16.2,29.92,WNW,299,5.0,8.0,73,0.00,OVC,OVC,0.00,WeatherDisplay:10.37,2013-03-13 09:01:00,
2013-03-13 05:05:00,23.5,16.4,29.92,WNW,297,7.0,10.0,74,0.00,OVC,OVC,0.00,WeatherDisplay:10.37,2013-03-13 09:05:00,
2013-03-13 05:10:00,23.6,16.5,29.92,WNW,294,7.0,9.0,74,0.00,OVC,OVC,0.00,WeatherDisplay:10.37,2013-03-13 09:10:00,
2013-03-13 05:16:00,23.5,16.5,29.93,WNW,295,5.0,9.0,74,0.00,OVC,OVC,0.00,WeatherDisplay:10.37,2013-03-13 09:16:00,
2013-03-13 05:20:00,23.6,16.8,29.93,WNW,300,8.0,10.0,75,0.00,OVC,OVC,0.00,WeatherDisplay:10.37,2013-03-13 09:20:00,
2013-03-13 05:25:00,23.7,16.9,29.93,WNW,301,7.0,10.0,75,0.00,OVC,OVC,0.00,WeatherDisplay:10.37,2013-03-13 09:25:00,
2013-03-13 05:30:00,23.8,17.3,29.93,WNW,300,7.0,12.0,76,0.00,OVC,OVC,0.00,WeatherDisplay:10.37,2013-03-13 09:30:00,
2013-03-13 05:35:00,23.8,17.6,29.94,WNW,296,10.0,13.0,77,0.00,OVC,OVC,0.00,WeatherDisplay:10.37,2013-03-13 09:35:00,
2013-03-13 05:40:00,23.7,18.1,29.94,WNW,297,9.0,13.0,79,0.00,OVC,OVC,0.00,WeatherDisplay:10.37,2013-03-13 09:40:00,
2013-03-13 05:45:00,23.7,18.4,29.94,WNW,295,8.0,12.0,80,0.00,OVC,OVC,0.00,WeatherDisplay:10.37,2013-03-13 09:45:00,
2013-03-13 05:50:00,23.5,18.5,29.94,WNW,293,9.0,12.0,81,0.00,OVC,OVC,0.00,WeatherDisplay:10.37,2013-03-13 09:50:00,
2013-03-13 05:55:00,23.4,19.0,29.94,WNW,290,6.0,9.0,83,0.00,OVC,OVC,0.00,WeatherDisplay:10.37,2013-03-13 09:55:00,
2013-03-13 06:00:00,23.3,19.2,29.95,WNW,286,6.0,10.0,84,0.00,SCT,OVC,0.00,WeatherDisplay:10.37,2013-03-13 10:00:00,
2013-03-13 06:05:00,23.2,19.1,29.95,WNW,282,6.0,9.0,84,0.00,SCT,OVC,0.00,WeatherDisplay:10.37,2013-03-13 10:05:00,
2013-03-13 06:10:00,23.1,19.3,29.95,WNW,283,7.0,12.0,85,0.00,SCT,OVC,0.00,WeatherDisplay:10.37,2013-03-13 10:10:00,
2013-03-13 06:15:00,23.1,19.3,29.95,WNW,290,5.0,12.0,85,0.00,SCT,OVC,0.00,WeatherDisplay:10.37,2013-03-13 10:15:00,
2013-03-13 06:20:00,23.0,19.1,29.95,WNW,286,3.0,6.0,85,0.00,SCT,OVC,0.00,WeatherDisplay:10.37,2013-03-13 10:20:00,
2013-03-13 06:26:00,22.9,19.1,29.96,West,277,2.0,8.0,85,0.00,SCT,OVC,0.00,WeatherDisplay:10.37,2013-03-13 10:26:00,
2013-03-13 06:31:00,22.9,19.1,29.96,West,280,5.0,6.0,85,0.00,SCT,OVC,0.00,WeatherDisplay:10.37,2013-03-13 10:31:00,
2013-03-13 06:35:00,22.9,19.3,29.96,WNW,284,3.0,7.0,86,0.00,SCT,OVC,0.00,WeatherDisplay:10.37,2013-03-13 10:35:00,
2013-03-13 06:40:00,22.9,19.3,29.96,WNW,283,3.0,8.0,86,0.00,SCT,OVC,0.00,WeatherDisplay:10.37,2013-03-13 10:40:00,
2013-03-13 06:45:00,23.0,19.4,29.97,West,279,5.0,7.0,86,0.00,SCT,OVC,0.00,WeatherDisplay:10.37,2013-03-13 10:45:00,
2013-03-13 06:51:00,23.2,19.6,29.97,WNW,285,8.0,13.0,86,0.00,SCT,OVC,0.00,WeatherDisplay:10.37,2013-03-13 10:51:00,
2013-03-13 06:56:00,23.4,19.6,29.97,WNW,293,7.0,13.0,85,0.00,SCT,OVC,0.00,WeatherDisplay:10.37,2013-03-13 10:56:00,
2013-03-13 07:01:00,23.3,19.5,29.97,WNW,291,6.0,9.0,85,0.00,BKN,OVC,0.00,WeatherDisplay:10.37,2013-03-13 11:01:00,
2013-03-13 07:06:00,23.2,19.6,29.97,WNW,287,6.0,9.0,86,0.00,BKN,OVC,0.00,WeatherDisplay:10.37,2013-03-13 11:06:00,
2013-03-13 07:10:00,23.2,19.6,29.97,WNW,286,6.0,10.0,86,0.00,BKN,OVC,0.00,WeatherDisplay:10.37,2013-03-13 11:10:00,
2013-03-13 07:11:00,30.6,18.0,30.17,WNW,296,12.0,16.0,59,0.00,CLR,OVC,0.00,WeatherDisplay:10.37,2013-03-13 11:11:00,
2013-03-13 07:16:00,23.1,19.5,29.97,WNW,284,7.0,12.0,86,0.00,BKN,OVC,0.00,WeatherDisplay:10.37,2013-03-13 11:16:00,
2013-03-13 07:21:00,23.2,19.6,29.97,West,272,6.0,9.0,86,0.00,BKN,OVC,0.00,WeatherDisplay:10.37,2013-03-13 11:21:00,
2013-03-13 07:25:00,23.3,19.7,29.98,West,279,6.0,10.0,86,0.00,BKN,OVC,0.00,WeatherDisplay:10.37,2013-03-13 11:25:00,
2013-03-13 07:26:00,30.4,17.4,30.18,WNW,296,12.0,16.0,58,0.00,CLR,OVC,0.00,WeatherDisplay:10.37,2013-03-13 11:26:00,
2013-03-13 07:30:00,23.5,19.9,29.97,WNW,284,6.0,12.0,86,0.00,BKN,OVC,0.00,WeatherDisplay:10.37,2013-03-13 11:30:00,
2013-03-13 07:31:00,30.3,17.3,30.18,WNW,299,9.0,19.0,58,0.00,CLR,OVC,0.00,WeatherDisplay:10.37,2013-03-13 11:31:00,
2013-03-13 07:36:00,23.6,20.0,29.98,WNW,283,7.0,9.0,86,0.00,BKN,OVC,0.00,WeatherDisplay:10.37,2013-03-13 11:36:00,
2013-03-13 07:41:00,23.7,20.1,29.98,West,281,3.0,10.0,86,0.00,BKN,OVC,0.00,WeatherDisplay:10.37,2013-03-13 11:41:00,
2013-03-13 07:45:00,23.8,20.2,29.98,WNW,283,6.0,10.0,86,0.00,BKN,OVC,0.00,WeatherDisplay:10.37,2013-03-13 11:45:00,
2013-03-13 07:46:00,30.2,16.4,30.18,WNW,286,10.0,17.0,56,0.00,CLR,OVC,0.00,WeatherDisplay:10.37,2013-03-13 11:46:00,
2013-03-13 07:50:00,23.8,20.2,29.98,WNW,283,6.0,10.0,86,0.00,BKN,OVC,0.00,WeatherDisplay:10.37,2013-03-13 11:50:00,
2013-03-13 07:51:00,30.1,15.9,30.18,WNW,290,12.0,17.0,55,0.00,CLR,OVC,0.00,WeatherDisplay:10.37,2013-03-13 11:51:00,
2013-03-13 07:55:00,23.8,20.2,29.98,WNW,282,6.0,9.0,86,0.00,BKN,OVC,0.00,WeatherDisplay:10.37,2013-03-13 11:55:00,
2013-03-13 07:56:00,30.2,16.8,30.19,WNW,292,10.0,17.0,57,0.00,CLR,OVC,0.00,WeatherDisplay:10.37,2013-03-13 11:56:00,
2013-03-13 08:00:00,23.9,20.3,29.98,WNW,292,6.0,12.0,86,0.00,BKN,OVC,0.00,WeatherDisplay:10.37,2013-03-13 12:00:00,
2013-03-13 08:01:00,30.3,16.5,30.19,WNW,286,8.0,17.0,56,0.00,CLR,OVC,0.00,WeatherDisplay:10.37,2013-03-13 12:01:00,
2013-03-13 08:05:00,23.9,20.3,29.98,WNW,289,6.0,10.0,86,0.00,BKN,OVC,0.00,WeatherDisplay:10.37,2013-03-13 12:05:00,
2013-03-13 08:06:00,30.1,15.9,30.18,WNW,284,13.0,17.0,55,0.00,CLR,OVC,0.00,WeatherDisplay:10.37,2013-03-13 12:06:00,
2013-03-13 08:10:00,23.9,20.0,29.99,WNW,284,6.0,10.0,85,0.00,BKN,OVC,0.00,WeatherDisplay:10.37,2013-03-13 12:10:00,
2013-03-13 08:11:00,30.1,15.9,30.19,WNW,293,10.0,17.0,55,0.00,CLR,OVC,0.00,WeatherDisplay:10.37,2013-03-13 12:11:00,
2013-03-13 08:16:00,23.9,20.3,29.99,West,280,7.0,10.0,86,0.00,BKN,OVC,0.00,WeatherDisplay:10.37,2013-03-13 12:16:00,
2013-03-13 08:21:00,23.8,20.2,29.99,West,281,7.0,12.0,86,0.00,BKN,OVC,0.00,WeatherDisplay:10.37,2013-03-13 12:21:00,
2013-03-13 08:25:00,23.8,20.3,29.99,WNW,285,6.0,10.0,86,0.00,BKN,OVC,0.00,WeatherDisplay:10.37,2013-03-13 12:25:00,
2013-03-13 08:26:00,29.8,15.2,30.19,WNW,293,12.0,20.0,54,0.00,CLR,OVC,0.00,WeatherDisplay:10.37,2013-03-13 12:26:00,
2013-03-13 08:30:00,23.9,20.3,29.99,WNW,286,5.0,10.0,86,0.00,BKN,OVC,0.00,WeatherDisplay:10.37,2013-03-13 12:30:00,
2013-03-13 08:31:00,29.9,16.1,30.19,WNW,292,12.0,19.0,56,0.00,CLR,OVC,0.00,WeatherDisplay:10.37,2013-03-13 12:31:00,
2013-03-13 08:35:00,24.0,20.4,29.99,WNW,282,6.0,13.0,86,0.00,BKN,OVC,0.00,WeatherDisplay:10.37,2013-03-13 12:35:00,
2013-03-13 08:36:00,29.7,16.3,30.20,WNW,291,7.0,20.0,57,0.00,CLR,OVC,0.00,WeatherDisplay:10.37,2013-03-13 12:36:00,
2013-03-13 08:41:00,24.0,20.4,30.00,WNW,282,7.0,12.0,86,0.00,BKN,OVC,0.00,WeatherDisplay:10.37,2013-03-13 12:41:00,
2013-03-13 08:45:00,24.1,20.5,30.00,WNW,285,6.0,12.0,86,0.00,BKN,OVC,0.00,WeatherDisplay:10.37,2013-03-13 12:45:00,
2013-03-13 08:46:00,29.7,15.9,30.20,WNW,292,8.0,16.0,56,0.00,CLR,OVC,0.00,WeatherDisplay:10.37,2013-03-13 12:46:00,
2013-03-13 08:50:00,24.1,20.5,30.00,WNW,283,7.0,13.0,86,0.00,BKN,OVC,0.00,WeatherDisplay:10.37,2013-03-13 12:50:00,
2013-03-13 08:51:00,29.7,15.5,30.20,WNW,295,12.0,14.0,55,0.00,CLR,OVC,0.00,WeatherDisplay:10.37,2013-03-13 12:51:00,
2013-03-13 08:55:00,24.3,20.4,30.00,WNW,287,8.0,13.0,85,0.00,BKN,OVC,0.00,WeatherDisplay:10.37,2013-03-13 12:55:00,
2013-03-13 08:56:00,29.7,14.6,30.20,WNW,298,9.0,17.0,53,0.00,CLR,OVC,0.00,WeatherDisplay:10.37,2013-03-13 12:56:00,
2013-03-13 09:01:00,24.4,20.5,30.01,WNW,294,13.0,16.0,85,0.00,-SN,OVC,0.00,WeatherDisplay:10.37,2013-03-13 13:01:00,
2013-03-13 09:06:00,24.5,20.4,30.01,WNW,293,10.0,15.0,84,0.00,-SN,OVC,0.00,WeatherDisplay:10.37,2013-03-13 13:06:00,
2013-03-13 09:10:00,24.6,20.5,30.01,WNW,291,12.0,15.0,84,0.00,-SN,OVC,0.00,WeatherDisplay:10.37,2013-03-13 13:10:00,
2013-03-13 09:11:00,29.4,14.4,30.20,WNW,297,12.0,16.0,53,0.00,CLR,OVC,0.00,WeatherDisplay:10.37,2013-03-13 13:11:00,
2013-03-13 09:15:00,24.6,20.5,30.01,WNW,288,8.0,12.0,84,0.00,-SN,OVC,0.00,WeatherDisplay:10.37,2013-03-13 13:15:00,
2013-03-13 09:20:00,24.6,20.5,30.02,WNW,290,9.0,16.0,84,0.00,-SN,OVC,0.00,WeatherDisplay:10.37,2013-03-13 13:20:00,
2013-03-13 09:21:00,29.4,14.8,30.21,WNW,292,9.0,13.0,54,0.00,CLR,OVC,0.00,WeatherDisplay:10.37,2013-03-13 13:21:00,
2013-03-13 09:25:00,24.7,20.5,30.02,WNW,288,9.0,13.0,84,0.00,-SN,OVC,0.00,WeatherDisplay:10.37,2013-03-13 13:25:00,
2013-03-13 09:26:00,29.4,14.8,30.21,WNW,292,7.0,15.0,54,0.00,CLR,OVC,0.00,WeatherDisplay:10.37,2013-03-13 13:26:00,
2013-03-13 09:31:00,24.7,20.3,30.02,WNW,288,10.0,14.0,83,0.00,-SN,OVC,0.00,WeatherDisplay:10.37,2013-03-13 13:31:00,
2013-03-13 09:36:00,24.7,20.3,30.02,WNW,292,12.0,18.0,83,0.00,-SN,OVC,0.00,WeatherDisplay:10.37,2013-03-13 13:36:00,
2013-03-13 09:40:00,24.9,20.5,30.02,WNW,293,9.0,13.0,83,0.00,-SN,OVC,0.00,WeatherDisplay:10.37,2013-03-13 13:40:00,
2013-03-13 09:41:00,29.2,15.0,30.22,WNW,294,9.0,15.0,55,0.00,CLR,OVC,0.00,WeatherDisplay:10.37,2013-03-13 13:41:00,
2013-03-13 09:46:00,25.0,20.3,30.02,WNW,288,9.0,15.0,82,0.00,-SN,OVC,0.00,WeatherDisplay:10.37,2013-03-13 13:46:00,
2013-03-13 09:51:00,29.1,14.5,30.22,WNW,292,7.0,12.0,54,0.00,CLR,OVC,0.00,WeatherDisplay:10.37,2013-03-13 13:51:00,
2013-03-13 09:55:00,25.0,20.0,30.03,WNW,294,13.0,16.0,81,0.00,-SN,OVC,0.00,WeatherDisplay:10.37,2013-03-13 13:55:00,
2013-03-13 09:56:00,29.1,14.5,30.22,WNW,294,7.0,12.0,54,0.00,CLR,OVC,0.00,WeatherDisplay:10.37,2013-03-13 13:56:00,
2013-03-13 10:01:00,25.0,20.0,30.03,WNW,292,12.0,15.0,81,0.00,-SN,OVC,0.00,WeatherDisplay:10.37,2013-03-13 14:01:00,
2013-03-13 10:05:00,25.0,20.3,30.04,WNW,292,10.0,15.0,82,0.00,-SN,OVC,0.00,WeatherDisplay:10.37,2013-03-13 14:05:00,
2013-03-13 10:06:00,29.0,14.4,30.22,WNW,293,7.0,10.0,54,0.00,CLR,OVC,0.00,WeatherDisplay:10.37,2013-03-13 14:06:00,
2013-03-13 10:10:00,25.1,20.4,30.04,WNW,290,10.0,16.0,82,0.00,-SN,OVC,0.00,WeatherDisplay:10.37,2013-03-13 14:10:00,
2013-03-13 10:11:00,28.9,14.3,30.22,WNW,294,7.0,11.0,54,0.00,CLR,OVC,0.00,WeatherDisplay:10.37,2013-03-13 14:11:00,
2013-03-13 10:15:00,25.2,20.4,30.04,WNW,294,12.0,14.0,82,0.00,-SN,OVC,0.00,WeatherDisplay:10.37,2013-03-13 14:15:00,
2013-03-13 10:16:00,28.8,14.6,30.22,WNW,294,6.0,9.0,55,0.00,CLR,OVC,0.00,WeatherDisplay:10.37,2013-03-13 14:16:00,
2013-03-13 10:20:00,25.3,20.2,30.04,WNW,290,9.0,16.0,81,0.00,-SN,OVC,0.00,WeatherDisplay:10.37,2013-03-13 14:20:00,
2013-03-13 10:21:00,28.8,14.2,30.22,WNW,292,7.0,13.0,54,0.00,CLR,OVC,0.00,WeatherDisplay:10.37,2013-03-13 14:21:00,
2013-03-13 10:25:00,25.4,20.4,30.05,WNW,283,8.0,16.0,81,0.00,-SN,OVC,0.00,WeatherDisplay:10.37,2013-03-13 14:25:00,
2013-03-13 10:26:00,28.7,14.1,30.22,WNW,292,6.0,9.0,54,0.00,CLR,OVC,0.00,WeatherDisplay:10.37,2013-03-13 14:26:00,
2013-03-13 10:31:00,25.3,20.3,30.05,WNW,286,10.0,15.0,81,0.00,-SN,OVC,0.00,WeatherDisplay:10.37,2013-03-13 14:31:00,
2013-03-13 10:36:00,25.4,20.1,30.05,WNW,289,10.0,20.0,80,0.00,-SN,OVC,0.00,WeatherDisplay:10.37,2013-03-13 14:36:00,
2013-03-13 10:40:00,25.5,19.9,30.05,WNW,297,13.0,16.0,79,0.00,-SN,OVC,0.00,WeatherDisplay:10.37,2013-03-13 14:40:00,
2013-03-13 10:41:00,28.6,14.0,30.23,WNW,288,3.0,10.0,54,0.00,CLR,OVC,0.00,WeatherDisplay:10.37,2013-03-13 14:41:00,
2013-03-13 10:46:00,25.8,20.2,30.06,WNW,295,15.0,21.0,79,0.00,-SN,OVC,0.00,WeatherDisplay:10.37,2013-03-13 14:46:00,
2013-03-13 10:50:00,26.1,20.2,30.05,WNW,292,10.0,16.0,78,0.00,-SN,OVC,0.00,WeatherDisplay:10.37,2013-03-13 14:50:00,
2013-03-13 10:51:00,28.4,14.3,30.23,WNW,292,3.0,10.0,55,0.00,CLR,OVC,0.00,WeatherDisplay:10.37,2013-03-13 14:51:00,
2013-03-13 10:55:00,26.0,19.8,30.06,WNW,292,13.0,18.0,77,0.00,-SN,OVC,0.00,WeatherDisplay:10.37,2013-03-13 14:55:00,
2013-03-13 10:56:00,28.3,14.6,30.23,WNW,292,3.0,7.0,56,0.00,CLR,OVC,0.00,WeatherDisplay:10.37,2013-03-13 14:56:00,
2013-03-13 11:00:00,26.0,19.5,30.06,WNW,288,13.0,17.0,76,0.00,-SN,OVC,0.00,WeatherDisplay:10.37,2013-03-13 15:00:00,
2013-03-13 11:01:00,28.2,14.5,30.23,WNW,290,2.0,6.0,56,0.00,CLR,OVC,0.00,WeatherDisplay:10.37,2013-03-13 15:01:00,
2013-03-13 11:05:00,26.1,19.9,30.06,WNW,289,10.0,19.0,77,0.00,-SN,OVC,0.00,WeatherDisplay:10.37,2013-03-13 15:05:00,
2013-03-13 11:06:00,28.0,14.3,30.23,WNW,283,3.0,5.0,56,0.00,CLR,OVC,0.00,WeatherDisplay:10.37,2013-03-13 15:06:00,
2013-03-13 11:10:00,26.1,19.9,30.07,WNW,296,13.0,20.0,77,0.00,-SN,OVC,0.00,WeatherDisplay:10.37,2013-03-13 15:10:00,
2013-03-13 11:11:00,27.9,14.2,30.23,WNW,282,3.0,7.0,56,0.00,CLR,OVC,0.00,WeatherDisplay:10.37,2013-03-13 15:11:00,
2013-03-13 11:15:00,26.3,19.5,30.07,WNW,296,15.0,20.0,75,0.00,-SN,OVC,0.00,WeatherDisplay:10.37,2013-03-13 15:15:00,
2013-03-13 11:16:00,27.8,14.1,30.23,WNW,289,3.0,6.0,56,0.00,CLR,OVC,0.00,WeatherDisplay:10.37,2013-03-13 15:16:00,
2013-03-13 11:20:00,26.5,19.3,30.07,WNW,294,12.0,17.0,74,0.00,-SN,OVC,0.00,WeatherDisplay:10.37,2013-03-13 15:20:00,
2013-03-13 11:21:00,27.7,14.4,30.23,WNW,292,1.0,3.0,57,0.00,CLR,OVC,0.00,WeatherDisplay:10.37,2013-03-13 15:21:00,
2013-03-13 11:25:00,26.6,19.8,30.07,WNW,298,9.0,12.0,75,0.00,-SN,OVC,0.00,WeatherDisplay:10.37,2013-03-13 15:25:00,
2013-03-13 11:26:00,27.6,14.3,30.23,WNW,289,1.0,6.0,57,0.00,CLR,OVC,0.00,WeatherDisplay:10.37,2013-03-13 15:26:00,
2013-03-13 11:30:00,26.5,19.6,30.07,WNW,295,13.0,20.0,75,0.00,-SN,OVC,0.00,WeatherDisplay:10.37,2013-03-13 15:30:00,
2013-03-13 11:35:00,26.1,19.6,30.08,WNW,299,14.0,22.0,76,0.00,-SN,OVC,0.00,WeatherDisplay:10.37,2013-03-13 15:35:00,
2013-03-13 11:40:00,25.7,20.4,30.08,WNW,298,12.0,18.0,80,0.00,-SN,OVC,0.00,WeatherDisplay:10.37,2013-03-13 15:40:00,
2013-03-13 11:46:00,25.7,20.1,30.08,WNW,297,10.0,17.0,79,0.00,-SN,OVC,0.00,WeatherDisplay:10.37,2013-03-13 15:46:00,
2013-03-13 11:50:00,26.2,20.3,30.08,NW,307,14.0,20.0,78,0.00,-SN,OVC,0.00,WeatherDisplay:10.37,2013-03-13 15:50:00,
2013-03-13 11:55:00,26.4,19.6,30.08,NW,305,13.0,20.0,75,0.00,-SN,OVC,0.00,WeatherDisplay:10.37,2013-03-13 15:55:00,
2013-03-13 12:00:00,26.7,19.5,30.08,NW,309,14.0,21.0,74,0.00,-SN,OVC,0.00,WeatherDisplay:10.37,2013-03-13 16:00:00,
2013-03-13 12:05:00,27.0,20.1,30.08,NW,312,12.0,21.0,75,0.00,-SN,OVC,0.00,WeatherDisplay:10.37,2013-03-13 16:05:00,
2013-03-13 12:10:00,27.2,20.0,30.09,WNW,303,14.0,18.0,74,0.00,-SN,OVC,0.00,WeatherDisplay:10.37,2013-03-13 16:10:00,
2013-03-13 12:15:00,27.0,19.2,30.09,WNW,298,15.0,24.0,72,0.00,-SN,OVC,0.00,WeatherDisplay:10.37,2013-03-13 16:15:00,
2013-03-13 12:21:00,27.0,18.8,30.09,NW,309,16.0,24.0,71,0.00,-SN,OVC,0.00,WeatherDisplay:10.37,2013-03-13 16:21:00,
2013-03-13 12:25:00,27.0,19.5,30.09,NW,310,14.0,20.0,73,0.00,-SN,OVC,0.00,WeatherDisplay:10.37,2013-03-13 16:25:00,
2013-03-13 12:30:00,27.4,19.3,30.09,WNW,302,15.0,21.0,71,0.00,-SN,OVC,0.00,WeatherDisplay:10.37,2013-03-13 16:30:00,
2013-03-13 12:36:00,27.3,18.5,30.09,NW,305,13.0,20.0,69,0.00,-SN,OVC,0.00,WeatherDisplay:10.37,2013-03-13 16:36:00,
2013-03-13 12:41:00,27.1,18.6,30.10,WNW,302,12.0,20.0,70,0.00,-SN,OVC,0.00,WeatherDisplay:10.37,2013-03-13 16:41:00,
2013-03-13 12:46:00,27.2,19.4,30.10,WNW,296,9.0,14.0,72,0.00,-SN,OVC,0.00,WeatherDisplay:10.37,2013-03-13 16:46:00,
2013-03-13 12:50:00,27.1,19.6,30.10,WNW,292,10.0,17.0,73,0.00,-SN,OVC,0.00,WeatherDisplay:10.37,2013-03-13 16:50:00,
2013-03-13 12:55:00,26.4,19.9,30.10,WNW,294,13.0,23.0,76,0.00,-SN,OVC,0.00,WeatherDisplay:10.37,2013-03-13 16:55:00,
2013-03-13 13:00:00,26.9,20.0,30.10,WNW,303,12.0,15.0,75,0.00,-SN,OVC,0.00,WeatherDisplay:10.37,2013-03-13 17:00:00,
2013-03-13 13:06:00,27.3,18.5,30.10,WNW,303,13.0,20.0,69,0.00,-SN,OVC,0.00,WeatherDisplay:10.37,2013-03-13 17:06:00,
2013-03-13 13:10:00,27.4,18.9,30.11,NW,304,13.0,20.0,70,0.00,-SN,OVC,0.00,WeatherDisplay:10.37,2013-03-13 17:10:00,
2013-03-13 13:15:00,27.4,19.2,30.11,NW,304,13.0,16.0,71,0.00,-SN,OVC,0.00,WeatherDisplay:10.37,2013-03-13 17:15:00,
2013-03-13 13:20:00,27.6,19.1,30.11,WNW,302,16.0,23.0,70,0.00,-SN,OVC,0.00,WeatherDisplay:10.37,2013-03-13 17:20:00,
2013-03-13 13:25:00,27.1,18.6,30.11,NW,305,16.0,22.0,70,0.00,-SN,OVC,0.00,WeatherDisplay:10.37,2013-03-13 17:25:00,
2013-03-13 13:30:00,27.6,19.8,30.11,NW,311,12.0,15.0,72,0.00,-SN,OVC,0.00,WeatherDisplay:10.37,2013-03-13 17:30:00,
2013-03-13 13:36:00,27.9,19.4,30.11,NW,309,15.0,22.0,70,0.00,-SN,OVC,0.00,WeatherDisplay:10.37,2013-03-13 17:36:00,
2013-03-13 13:41:00,27.6,18.8,30.11,NW,314,14.0,20.0,69,0.00,-SN,OVC,0.00,WeatherDisplay:10.37,2013-03-13 17:41:00,
2013-03-13 13:45:00,27.8,19.3,30.12,NW,316,10.0,16.0,70,0.00,-SN,OVC,0.00,WeatherDisplay:10.37,2013-03-13 17:45:00,
2013-03-13 13:50:00,27.9,18.7,30.12,NW,306,13.0,18.0,68,0.00,-SN,OVC,0.00,WeatherDisplay:10.37,2013-03-13 17:50:00,
2013-03-13 13:56:00,27.8,18.9,30.12,NW,309,14.0,20.0,69,0.00,-SN,OVC,0.00,WeatherDisplay:10.37,2013-03-13 17:56:00,
2013-03-13 14:01:00,28.0,19.1,30.12,NW,307,12.0,18.0,69,0.00,-SN,OVC,0.00,WeatherDisplay:10.37,2013-03-13 18:01:00,
2013-03-13 14:05:00,28.2,19.3,30.12,NW,309,13.0,18.0,69,0.00,-SN,OVC,0.00,WeatherDisplay:10.37,2013-03-13 18:05:00,
2013-03-13 14:10:00,28.3,18.7,30.12,NW,311,12.0,20.0,67,0.00,-SN,OVC,0.00,WeatherDisplay:10.37,2013-03-13 18:10:00,
2013-03-13 14:16:00,28.8,18.9,30.13,NW,311,10.0,18.0,66,0.00,-SN,OVC,0.00,WeatherDisplay:10.37,2013-03-13 18:16:00,
2013-03-13 14:21:00,28.9,18.3,30.13,NW,318,15.0,23.0,64,0.00,-SN,OVC,0.00,WeatherDisplay:10.37,2013-03-13 18:21:00,
2013-03-13 14:25:00,28.7,17.4,30.13,NW,314,16.0,20.0,62,0.00,-SN,OVC,0.00,WeatherDisplay:10.37,2013-03-13 18:25:00,
2013-03-13 14:30:00,28.6,17.2,30.13,NW,322,12.0,21.0,62,0.00,-SN,OVC,0.00,WeatherDisplay:10.37,2013-03-13 18:30:00,
2013-03-13 14:35:00,28.7,17.7,30.13,NW,318,16.0,23.0,63,0.00,-SN,OVC,0.00,WeatherDisplay:10.37,2013-03-13 18:35:00,
2013-03-13 14:40:00,28.6,17.2,30.13,NW,308,16.0,25.0,62,0.00,-SN,OVC,0.00,WeatherDisplay:10.37,2013-03-13 18:40:00,
2013-03-13 14:45:00,28.5,16.8,30.14,NW,316,14.0,23.0,61,0.00,-SN,OVC,0.00,WeatherDisplay:10.37,2013-03-13 18:45:00,
2013-03-13 14:50:00,28.5,17.1,30.13,NW,324,14.0,21.0,62,0.00,-SN,OVC,0.00,WeatherDisplay:10.37,2013-03-13 18:50:00,
2013-03-13 14:56:00,28.5,17.2,30.13,NW,318,13.0,20.0,62,0.00,-SN,OVC,0.00,WeatherDisplay:10.37,2013-03-13 18:56:00,
2013-03-13 15:01:00,28.5,16.4,30.13,NW,322,13.0,21.0,60,0.00,-SN,OVC,0.00,WeatherDisplay:10.37,2013-03-13 19:01:00,
2013-03-13 15:05:00,28.8,17.4,30.14,NNW,332,13.0,22.0,62,0.00,-SN,OVC,0.00,WeatherDisplay:10.37,2013-03-13 19:05:00,
2013-03-13 15:10:00,29.1,17.7,30.14,NW,312,14.0,22.0,62,0.00,-SN,OVC,0.00,WeatherDisplay:10.37,2013-03-13 19:10:00,
2013-03-13 15:15:00,28.8,17.0,30.14,NW,307,15.0,21.0,61,0.00,-SN,OVC,0.00,WeatherDisplay:10.37,2013-03-13 19:15:00,
2013-03-13 15:20:00,28.6,16.5,30.14,NW,313,14.0,20.0,60,0.00,-SN,OVC,0.00,WeatherDisplay:10.37,2013-03-13 19:20:00,
2013-03-13 15:25:00,28.9,16.7,30.14,NW,309,15.0,20.0,60,0.00,-SN,OVC,0.00,WeatherDisplay:10.37,2013-03-13 19:25:00,
2013-03-13 15:30:00,29.0,16.8,30.14,WNW,301,13.0,20.0,60,0.00,-SN,OVC,0.00,WeatherDisplay:10.37,2013-03-13 19:30:00,
2013-03-13 15:35:00,29.4,17.2,30.14,NW,307,13.0,18.0,60,0.00,-SN,OVC,0.00,WeatherDisplay:10.37,2013-03-13 19:35:00,
2013-03-13 15:40:00,29.4,17.6,30.14,NW,311,13.0,17.0,61,0.00,-SN,OVC,0.00,WeatherDisplay:10.37,2013-03-13 19:40:00,
2013-03-13 15:45:00,29.5,17.7,30.14,NW,313,9.0,17.0,61,0.00,-SN,OVC,0.00,WeatherDisplay:10.37,2013-03-13 19:45:00,
2013-03-13 15:50:00,29.4,16.8,30.14,WNW,301,13.0,18.0,59,0.00,-SN,OVC,0.00,WeatherDisplay:10.37,2013-03-13 19:50:00,
2013-03-13 15:56:00,29.4,17.2,30.14,WNW,295,13.0,23.0,60,0.00,-SN,OVC,0.00,WeatherDisplay:10.37,2013-03-13 19:56:00,
2013-03-13 16:00:00,29.9,18.1,30.15,WNW,295,10.0,18.0,61,0.00,-SN,OVC,0.00,WeatherDisplay:10.37,2013-03-13 20:00:00,
2013-03-13 16:05:00,29.8,17.6,30.15,WNW,296,16.0,23.0,60,0.00,-SN,OVC,0.00,WeatherDisplay:10.37,2013-03-13 20:05:00,
2013-03-13 16:10:00,29.8,16.8,30.15,NW,306,14.0,20.0,58,0.00,-SN,OVC,0.00,WeatherDisplay:10.37,2013-03-13 20:10:00,
2013-03-13 16:15:00,29.6,16.6,30.15,NW,319,12.0,20.0,58,0.00,-SN,OVC,0.00,WeatherDisplay:10.37,2013-03-13 20:15:00,
2013-03-13 16:21:00,30.0,17.4,30.15,NW,316,10.0,16.0,59,0.00,-SN,OVC,0.00,WeatherDisplay:10.37,2013-03-13 20:21:00,
2013-03-13 16:25:00,30.1,16.7,30.16,WNW,299,9.0,21.0,57,0.00,-SN,OVC,0.00,WeatherDisplay:10.37,2013-03-13 20:25:00,
2013-03-13 16:30:00,30.2,17.6,30.16,WNW,289,9.0,14.0,59,0.00,-SN,OVC,0.00,WeatherDisplay:10.37,2013-03-13 20:30:00,
2013-03-13 16:35:00,30.1,17.5,30.16,WNW,297,13.0,17.0,59,0.00,-SN,OVC,0.00,WeatherDisplay:10.37,2013-03-13 20:35:00,
2013-03-13 16:41:00,30.1,17.1,30.16,WNW,302,15.0,20.0,58,0.00,-SN,OVC,0.00,WeatherDisplay:10.37,2013-03-13 20:41:00,
2013-03-13 16:46:00,30.2,17.2,30.16,NW,306,13.0,16.0,58,0.00,-SN,OVC,0.00,WeatherDisplay:10.37,2013-03-13 20:46:00,
2013-03-13 16:50:00,30.2,16.8,30.17,WNW,303,12.0,17.0,57,0.00,-SN,OVC,0.00,WeatherDisplay:10.37,2013-03-13 20:50:00,
2013-03-13 16:55:00,30.1,17.1,30.17,WNW,294,14.0,20.0,58,0.00,-SN,OVC,0.00,WeatherDisplay:10.37,2013-03-13 20:55:00,
2013-03-13 17:00:00,30.0,16.6,30.17,WNW,296,14.0,21.0,57,0.00,BKN,OVC,0.00,WeatherDisplay:10.37,2013-03-13 21:00:00,
2013-03-13 17:05:00,30.0,17.0,30.17,WNW,300,13.0,17.0,58,0.00,BKN,OVC,0.00,WeatherDisplay:10.37,2013-03-13 21:05:00,
2013-03-13 21:35:00,27.5,14.7,30.23,West,278,2.0,6.0,58,0.00,BKN,OVC,0.00,WeatherDisplay:10.37,2013-03-14 01:35:00,
2013-03-13 21:40:00,27.6,14.7,30.23,West,280,3.0,6.0,58,0.00,BKN,OVC,0.00,WeatherDisplay:10.37,2013-03-14 01:40:00,
2013-03-13 21:46:00,27.6,15.1,30.23,West,278,3.0,6.0,59,0.00,BKN,OVC,0.00,WeatherDisplay:10.37,2013-03-14 01:46:00,
2013-03-13 21:55:00,27.6,15.1,30.23,WNW,285,2.0,4.0,59,0.00,BKN,OVC,0.00,WeatherDisplay:10.37,2013-03-14 01:55:00,
2013-03-13 22:00:00,27.5,15.1,30.23,WNW,289,1.0,5.0,59,0.00,CLR,OVC,0.00,WeatherDisplay:10.37,2013-03-14 02:00:00,
2013-03-13 22:05:00,27.4,15.3,30.23,WNW,293,1.0,3.0,60,0.00,CLR,OVC,0.00,WeatherDisplay:10.37,2013-03-14 02:05:00,
2013-03-13 22:10:00,27.3,15.6,30.23,WNW,293,1.0,3.0,61,0.00,CLR,OVC,0.00,WeatherDisplay:10.37,2013-03-14 02:10:00,
2013-03-13 22:15:00,27.1,15.5,30.23,WNW,293,1.0,3.0,61,0.00,CLR,OVC,0.00,WeatherDisplay:10.37,2013-03-14 02:15:00,
2013-03-13 22:20:00,27.1,15.4,30.23,WNW,293,1.0,4.0,61,0.00,CLR,OVC,0.00,WeatherDisplay:10.37,2013-03-14 02:20:00,
2013-03-13 22:25:00,27.0,15.7,30.23,WNW,293,1.0,3.0,62,0.00,CLR,OVC,0.00,WeatherDisplay:10.37,2013-03-14 02:25:00,
2013-03-13 22:30:00,26.9,16.0,30.24,WNW,293,2.0,4.0,63,0.00,CLR,OVC,0.00,WeatherDisplay:10.37,2013-03-14 02:30:00,
2013-03-13 22:35:00,26.8,15.9,30.24,WNW,293,1.0,3.0,63,0.00,CLR,OVC,0.00,WeatherDisplay:10.37,2013-03-14 02:35:00,
2013-03-13 22:40:00,26.8,15.9,30.24,WNW,293,2.0,4.0,63,0.00,CLR,OVC,0.00,WeatherDisplay:10.37,2013-03-14 02:40:00,
2013-03-13 22:45:00,26.7,15.8,30.24,WNW,293,1.0,2.0,63,0.00,CLR,OVC,0.00,WeatherDisplay:10.37,2013-03-14 02:45:00,
2013-03-13 22:50:00,26.6,15.7,30.24,WNW,293,1.0,3.0,63,0.00,CLR,OVC,0.00,WeatherDisplay:10.37,2013-03-14 02:50:00,
2013-03-13 22:55:00,26.6,16.1,30.24,WNW,293,1.0,5.0,64,0.00,CLR,OVC,0.00,WeatherDisplay:10.37,2013-03-14 02:55:00,
2013-03-13 23:00:00,26.6,16.1,30.24,WNW,287,1.0,2.0,64,0.00,CLR,OVC,0.00,WeatherDisplay:10.37,2013-03-14 03:00:00,
2013-03-13 23:05:00,26.5,16.0,30.24,West,281,1.0,3.0,64,0.00,CLR,OVC,0.00,WeatherDisplay:10.37,2013-03-14 03:05:00,
2013-03-13 23:10:00,26.5,16.0,30.24,West,281,1.0,3.0,64,0.00,CLR,OVC,0.00,WeatherDisplay:10.37,2013-03-14 03:10:00,
2013-03-13 23:15:00,26.6,16.0,30.24,West,281,0.0,2.0,64,0.00,CLR,OVC,0.00,WeatherDisplay:10.37,2013-03-14 03:15:00,
2013-03-13 23:20:00,26.5,16.0,30.23,West,281,2.0,4.0,64,0.00,CLR,OVC,0.00,WeatherDisplay:10.37,2013-03-14 03:20:00,
2013-03-13 23:25:00,26.5,16.3,30.24,West,281,0.0,3.0,65,0.00,CLR,OVC,0.00,WeatherDisplay:10.37,2013-03-14 03:25:00,
2013-03-13 23:30:00,26.4,16.2,30.24,West,281,1.0,4.0,65,0.00,CLR,OVC,0.00,WeatherDisplay:10.37,2013-03-14 03:30:00,
2013-03-13 23:35:00,26.4,16.2,30.24,West,281,1.0,3.0,65,0.00,CLR,OVC,0.00,WeatherDisplay:10.37,2013-03-14 03:35:00,
2013-03-13 23:40:00,26.5,16.3,30.23,West,281,0.0,3.0,65,0.00,CLR,OVC,0.00,WeatherDisplay:10.37,2013-03-14 03:40:00,
2013-03-13 23:45:00,26.5,16.3,30.23,West,281,1.0,3.0,65,0.00,CLR,OVC,0.00,WeatherDisplay:10.37,2013-03-14 03:45:00,
2013-03-13 23:50:00,26.5,16.3,30.23,West,281,1.0,4.0,65,0.00,CLR,OVC,0.00,WeatherDisplay:10.37,2013-03-14 03:50:00,
2013-03-13 23:55:00,26.4,16.6,30.23,West,281,1.0,4.0,66,0.00,CLR,OVC,0.00,WeatherDisplay:10.37,2013-03-14 03:55:00,